Time;durP1;ratioP1;P1;durP2;ratioP2;P2;SDS_P1;SDS_P2;PMS_P1;PMS_P2;Temp;Humidity;BMP_temperature;BMP_pressure;BME280_temperature;BME280_humidity;BME280_pressure;Samples;Min_cycle;Max_cycle;Signal;HPM_P1;HPM_P2
2021/12/09 00:03:06;;;;;;;10.70;4.75;;;;;;;;;;10531831;28;20048;-72
2021/12/09 00:08:30;;;;;;;10.60;4.50;;;;;;;;;;10525810;28;20272;-69
2021/12/09 00:13:35;;;;;;;4.97;3.10;;;;;;;;;;10538548;28;20082;-71
2021/12/09 00:19:00;;;;;;;7.17;3.20;;;;;;;;;;10551857;28;20044;-71
2021/12/09 00:24:03;;;;;;;2.63;1.27;;;;;;;;;;10538369;28;20139;-72
2021/12/09 00:29:05;;;;;;;7.03;3.13;;;;;;;;;;10545343;28;20044;-72
2021/12/09 00:34:11;;;;;;;6.67;2.90;;;;;;;;;;10531266;28;20036;-70
2021/12/09 00:39:15;;;;;;;4.00;2.17;;;;;;;;;;10535822;28;20116;-71
2021/12/09 00:44:18;;;;;;;12.03;4.63;;;;;;;;;;10541011;28;20044;-70
2021/12/09 00:49:22;;;;;;;3.10;1.77;;;;;;;;;;10555216;28;20115;-71
2021/12/09 00:54:26;;;;;;;4.67;1.93;;;;;;;;;;10541187;28;20071;-71
2021/12/09 00:59:29;;;;;;;5.30;2.73;;;;;;;;;;10545893;27;20039;-71
2021/12/09 01:04:34;;;;;;;10.27;4.10;;;;;;;;;;10553498;28;20127;-71
2021/12/09 01:09:37;;;;;;;4.37;1.83;;;;;;;;;;10557162;28;20775;-72
2021/12/09 01:14:40;;;;;;;1.50;1.10;;;;;;;;;;10516273;27;20086;-68
2021/12/09 01:19:45;;;;;;;9.93;2.83;;;;;;;;;;10524022;27;20043;-71
2021/12/09 01:24:48;;;;;;;6.27;3.10;;;;;;;;;;10543894;28;20437;-70
2021/12/09 01:29:54;;;;;;;8.13;3.20;;;;;;;;;;10541562;28;20047;-69
2021/12/09 01:34:58;;;;;;;5.37;2.77;;;;;;;;;;10534850;28;20518;-70
2021/12/09 01:40:01;;;;;;;;;;;;;;;;;;10546623;28;20048;-70
2021/12/09 01:45:07;;;;;;;3.13;1.47;;;;;;;;;;10544990;28;19931;-70
2021/12/09 01:50:12;;;;;;;4.63;2.10;;;;;;;;;;10554735;28;20035;-71
2021/12/09 01:55:15;;;;;;;4.23;2.00;;;;;;;;;;10541668;28;20121;-69
2021/12/09 02:00:20;;;;;;;1.85;0.95;;;;;;;;;;10512179;28;20064;-68
2021/12/09 02:05:22;;;;;;;;;;;;;;;;;;10547710;28;20047;-69
2021/12/09 02:10:28;;;;;;;5.33;2.40;;;;;;;;;;10550978;28;20370;-69
2021/12/09 02:15:52;;;;;;;5.90;2.47;;;;;;;;;;10557924;28;20427;-70
2021/12/09 02:21:15;;;;;;;;;;;;;;;;;;10556843;28;20080;-72
2021/12/09 02:26:43;;;;;;;2.83;1.10;;;;;;;;;;10542573;28;20291;-72
2021/12/09 02:32:06;;;;;;;1.90;1.00;;;;;;;;;;10548735;28;20139;-70
2021/12/09 02:37:28;;;;;;;3.37;1.57;;;;;;;;;;10555922;27;20040;-71
2021/12/09 02:42:53;;;;;;;3.27;1.67;;;;;;;;;;10551684;28;20056;-73
2021/12/09 02:48:09;;;;;;;5.57;2.43;;;;;;;;;;10550901;28;20092;-72
2021/12/09 02:53:13;;;;;;;4.28;2.38;;;;;;;;;;10550440;28;20088;-71
2021/12/09 02:58:18;;;;;;;5.93;3.00;;;;;;;;;;10548610;28;20052;-71
2021/12/09 03:03:47;;;;;;;3.35;1.63;;;;;;;;;;10540233;28;20187;-72
2021/12/09 03:09:13;;;;;;;7.73;3.07;;;;;;;;;;10553064;28;20159;-72
2021/12/09 03:14:37;;;;;;;8.53;3.47;;;;;;;;;;10539530;28;20135;-72
2021/12/09 03:19:40;;;;;;;3.00;0.97;;;;;;;;;;10544523;28;20115;-72
2021/12/09 03:24:43;;;;;;;6.57;3.03;;;;;;;;;;10561645;28;20126;-70
2021/12/09 03:29:47;;;;;;;1.37;0.80;;;;;;;;;;10537906;28;20067;-68
2021/12/09 03:34:50;;;;;;;;;;;;;;;;;;10551336;28;20149;-72
2021/12/09 03:39:53;;;;;;;1.80;1.03;;;;;;;;;;10532539;28;20355;-69
2021/12/09 03:44:58;;;;;;;5.40;2.30;;;;;;;;;;10547824;28;20040;-72
2021/12/09 03:50:01;;;;;;;6.73;3.30;;;;;;;;;;10545783;28;20550;-71
2021/12/09 03:55:06;;;;;;;7.40;3.03;;;;;;;;;;10542826;28;20104;-70
2021/12/09 04:00:11;;;;;;;3.13;1.37;;;;;;;;;;10538931;28;20456;-71
2021/12/09 04:05:14;;;;;;;7.77;2.60;;;;;;;;;;10543037;28;20048;-71
2021/12/09 04:10:17;;;;;;;8.20;3.37;;;;;;;;;;10534244;28;20492;-70
2021/12/09 04:15:21;;;;;;;9.87;3.63;;;;;;;;;;10550286;28;20097;-70
2021/12/09 04:20:24;;;;;;;;;;;;;;;;;;10528860;28;20200;-71
2021/12/09 04:25:47;;;;;;;9.97;4.30;;;;;;;;;;10558119;28;20376;-69
2021/12/09 04:31:11;;;;;;;7.97;3.10;;;;;;;;;;10544587;28;20062;-69
2021/12/09 04:36:34;;;;;;;;;;;;;;;;;;10548649;28;20551;-68
2021/12/09 04:41:56;;;;;;;11.10;4.07;;;;;;;;;;10532199;27;19923;-70
2021/12/09 04:47:21;;;;;;;7.53;3.30;;;;;;;;;;10567686;28;20067;-67
2021/12/09 04:52:43;;;;;;;7.00;2.90;;;;;;;;;;10591175;28;20054;-72
2021/12/09 04:58:07;;;;;;;7.57;3.60;;;;;;;;;;10612008;28;20044;-70
2021/12/09 05:03:12;;;;;;;;;;;;;;;;;;10587422;28;20039;-71
2021/12/09 05:08:17;;;;;;;4.40;2.28;;;;;;;;;;10578444;27;19950;-70
2021/12/09 05:13:20;;;;;;;3.63;0.93;;;;;;;;;;10538372;27;20106;-70
2021/12/09 05:18:24;;;;;;;9.43;3.23;;;;;;;;;;10546982;28;20061;-69
2021/12/09 05:23:28;;;;;;;11.63;3.60;;;;;;;;;;10553872;27;20519;-69
2021/12/09 05:28:34;;;;;;;;;;;;;;;;;;10541602;28;20055;-69
2021/12/09 05:33:37;;;;;;;10.47;3.80;;;;;;;;;;10551098;28;20015;-68
2021/12/09 05:38:41;;;;;;;6.80;2.97;;;;;;;;;;10548562;28;20091;-69
2021/12/09 05:43:45;;;;;;;11.67;4.63;;;;;;;;;;10561064;28;20098;-71
2021/12/09 05:48:47;;;;;;;9.97;4.03;;;;;;;;;;10553741;28;20044;-70
2021/12/09 05:53:52;;;;;;;6.50;2.67;;;;;;;;;;10564056;28;20032;-70
2021/12/09 05:58:55;;;;;;;5.37;2.33;;;;;;;;;;10526795;27;20195;-69
2021/12/09 06:03:58;;;;;;;1.87;1.33;;;;;;;;;;10517986;27;20097;-68
2021/12/09 06:09:02;;;;;;;6.23;2.60;;;;;;;;;;10549815;27;20119;-70
2021/12/09 06:14:06;;;;;;;1.63;0.90;;;;;;;;;;10565471;28;20098;-69
2021/12/09 06:19:09;;;;;;;1.65;1.30;;;;;;;;;;10544779;28;20112;-70
2021/12/09 06:24:13;;;;;;;1.60;1.27;;;;;;;;;;10553338;28;20036;-68
2021/12/09 06:29:15;;;;;;;;;;;;;;;;;;10561990;28;20135;-70
2021/12/09 06:34:18;;;;;;;7.13;2.90;;;;;;;;;;10537320;27;19926;-69
2021/12/09 06:39:22;;;;;;;2.87;1.53;;;;;;;;;;10523286;27;20522;-70
2021/12/09 06:44:25;;;;;;;;;;;;;;;;;;10539980;28;20047;-68
2021/12/09 06:49:27;;;;;;;4.10;1.90;;;;;;;;;;10542876;28;20375;-71
2021/12/09 06:54:32;;;;;;;6.03;2.73;;;;;;;;;;10547307;27;20048;-72
2021/12/09 06:59:35;;;;;;;2.00;1.17;;;;;;;;;;10545728;28;20079;-71
2021/12/09 07:04:38;;;;;;;3.07;1.50;;;;;;;;;;10558650;28;20104;-70
2021/12/09 07:09:42;;;;;;;4.67;1.67;;;;;;;;;;10552591;28;20040;-70
2021/12/09 07:14:45;;;;;;;2.50;1.38;;;;;;;;;;10561139;28;20040;-71
2021/12/09 07:19:47;;;;;;;3.23;1.50;;;;;;;;;;10555313;28;20130;-69
2021/12/09 07:24:52;;;;;;;2.60;1.60;;;;;;;;;;10565028;28;20043;-71
2021/12/09 07:29:55;;;;;;;6.00;2.57;;;;;;;;;;10534553;28;20055;-70
2021/12/09 07:34:57;;;;;;;3.30;1.50;;;;;;;;;;10546912;28;20077;-69
2021/12/09 07:40:01;;;;;;;3.53;1.60;;;;;;;;;;10542476;28;20123;-70
2021/12/09 07:45:04;;;;;;;;;;;;;;;;;;10531061;28;20191;-69
2021/12/09 07:50:08;;;;;;;5.40;2.60;;;;;;;;;;10540595;28;19920;-70
2021/12/09 07:55:11;;;;;;;;;;;;;;;;;;10538076;28;20044;-71
2021/12/09 08:00:17;;;;;;;4.10;2.00;;;;;;;;;;10542490;28;19919;-69
2021/12/09 08:05:20;;;;;;;4.07;1.33;;;;;;;;;;10558435;28;20138;-70
2021/12/09 08:10:24;;;;;;;4.15;1.48;;;;;;;;;;10567394;28;20216;-71
2021/12/09 08:15:28;;;;;;;9.23;1.92;;;;;;;;;;10551638;28;20384;-70
2021/12/09 08:20:33;;;;;;;3.87;1.67;;;;;;;;;;10561755;27;20031;-70
2021/12/09 08:25:36;;;;;;;1.83;1.07;;;;;;;;;;10550278;28;20415;-69
2021/12/09 08:30:40;;;;;;;3.10;1.47;;;;;;;;;;10556123;27;20311;-68
2021/12/09 08:35:52;;;;;;;3.23;1.67;;;;;;;;;;10550877;28;20479;-71
2021/12/09 08:40:55;;;;;;;4.90;1.63;;;;;;;;;;10538543;28;20423;-72
2021/12/09 08:45:59;;;;;;;4.17;1.10;;;;;;;;;;10537353;28;20445;-70
2021/12/09 08:51:02;;;;;;;;;;;;;;;;;;10544091;28;20055;-70
2021/12/09 08:56:05;;;;;;;3.30;1.57;;;;;;;;;;10547272;27;20461;-70
2021/12/09 09:01:12;;;;;;;4.30;1.83;;;;;;;;;;10537417;27;20063;-71
2021/12/09 09:06:15;;;;;;;3.40;1.80;;;;;;;;;;10535810;28;20096;-69
2021/12/09 09:11:18;;;;;;;3.00;1.57;;;;;;;;;;10551189;28;20062;-70
2021/12/09 09:16:22;;;;;;;1.90;1.23;;;;;;;;;;10542868;28;20047;-71
2021/12/09 09:21:25;;;;;;;;;;;;;;;;;;10545610;28;20047;-69
2021/12/09 09:26:29;;;;;;;0.93;0.73;;;;;;;;;;10518476;27;20365;-69
2021/12/09 09:31:50;;;;;;;2.17;1.60;;;;;;;;;;10533315;28;20204;-69
2021/12/09 09:36:53;;;;;;;1.52;1.23;;;;;;;;;;10544967;28;20715;-70
2021/12/09 09:42:01;;;;;;;3.13;1.63;;;;;;;;;;10547108;28;20050;-72
2021/12/09 09:47:05;;;;;;;3.33;2.10;;;;;;;;;;10544779;27;20066;-70
2021/12/09 09:52:09;;;;;;;7.50;1.63;;;;;;;;;;10540300;28;20476;-69
2021/12/09 09:57:12;;;;;;;2.63;1.53;;;;;;;;;;10543981;28;20043;-71
2021/12/09 10:02:16;;;;;;;4.80;2.37;;;;;;;;;;10544120;27;20070;-70
2021/12/09 10:07:20;;;;;;;3.10;1.33;;;;;;;;;;10546762;28;20476;-68
2021/12/09 10:12:23;;;;;;;5.70;1.92;;;;;;;;;;10548727;28;20423;-70
2021/12/09 10:17:28;;;;;;;5.87;2.47;;;;;;;;;;10535907;28;20044;-70
2021/12/09 10:22:59;;;;;;;9.73;4.13;;;;;;;;;;10527994;27;20097;-69
2021/12/09 10:28:23;;;;;;;8.90;3.87;;;;;;;;;;10514196;27;20043;-70
2021/12/09 10:33:27;;;;;;;2.77;2.07;;;;;;;;;;10513023;28;20040;-70
2021/12/09 10:38:30;;;;;;;;;;;;;;;;;;10539795;27;20091;-69
2021/12/09 10:43:32;;;;;;;9.40;4.47;;;;;;;;;;10525812;27;19927;-69
2021/12/09 10:48:41;;;;;;;3.55;1.73;;;;;;;;;;10514438;27;20044;-69
2021/12/09 10:53:47;;;;;;;6.83;3.07;;;;;;;;;;10512825;27;20052;-71
2021/12/09 10:58:51;;;;;;;9.10;4.03;;;;;;;;;;10534666;27;20063;-70
2021/12/09 11:03:55;;;;;;;13.33;3.77;;;;;;;;;;10540568;28;20074;-70
2021/12/09 11:08:59;;;;;;;6.53;2.50;;;;;;;;;;10536821;28;20462;-69
2021/12/09 11:14:07;;;;;;;11.43;3.25;;;;;;;;;;10545043;28;20095;-69
2021/12/09 11:19:15;;;;;;;6.33;3.40;;;;;;;;;;10550512;28;20043;-69
2021/12/09 11:24:20;;;;;;;11.07;3.73;;;;;;;;;;10541862;28;20047;-68
2021/12/09 11:29:25;;;;;;;2.83;1.70;;;;;;;;;;10547198;28;20507;-68
2021/12/09 11:34:34;;;;;;;3.83;1.80;;;;;;;;;;10540577;28;20112;-70
2021/12/09 11:39:38;;;;;;;6.13;2.17;;;;;;;;;;10546572;28;20126;-68
2021/12/09 11:44:41;;;;;;;;;;;;;;;;;;10540297;28;20124;-68
2021/12/09 11:49:46;;;;;;;3.87;2.00;;;;;;;;;;10559953;28;19919;-68
2021/12/09 11:54:57;;;;;;;7.77;2.20;;;;;;;;;;10553331;28;20056;-69
2021/12/09 12:11:17;;;;;;;5.13;2.27;;;;;;;;;;10540477;28;20056;-69
2021/12/09 12:16:39;;;;;;;4.03;2.27;;;;;;;;;;10539517;28;20126;-69
2021/12/09 12:22:06;;;;;;;5.50;1.50;;;;;;;;;;10535293;28;20153;-68
2021/12/09 12:27:23;;;;;;;1.53;1.17;;;;;;;;;;10532401;28;20052;-69
2021/12/09 12:32:59;;;;;;;5.97;2.43;;;;;;;;;;10523900;28;20047;-70
2021/12/09 12:38:10;;;;;;;4.03;2.23;;;;;;;;;;10538374;28;20067;-71
2021/12/09 12:43:24;;;;;;;5.73;2.33;;;;;;;;;;10520782;28;20040;-68
2021/12/09 12:54:24;;;;;;;2.03;1.53;;;;;;;;;;10546649;27;20066;-68
2021/12/09 12:59:31;;;;;;;6.87;2.43;;;;;;;;;;10531420;27;20450;-68
2021/12/09 13:04:43;;;;;;;2.63;1.73;;;;;;;;;;10542081;27;20031;-70
2021/12/09 13:10:00;;;;;;;4.43;2.10;;;;;;;;;;10546918;27;20047;-69
2021/12/09 13:15:07;;;;;;;13.10;5.17;;;;;;;;;;10527224;27;20036;-68
2021/12/09 13:20:24;;;;;;;2.83;1.33;;;;;;;;;;10533466;27;20043;-71
2021/12/09 13:25:32;;;;;;;6.33;2.80;;;;;;;;;;10528967;28;20125;-69
2021/12/09 13:31:05;;;;;;;2.53;1.50;;;;;;;;;;10529809;27;20360;-70
2021/12/09 13:36:26;;;;;;;6.30;2.50;;;;;;;;;;10536048;27;20788;-68
2021/12/09 13:47:02;;;;;;;1.43;1.10;;;;;;;;;;10532894;27;20066;-68
2021/12/09 13:54:03;;;;;;;3.70;1.97;;;;;;;;;;10515536;27;20039;-68
2021/12/09 13:57:32;;;;;;;5.22;2.17;;;;;;;;;;10550656;27;20127;-70
2021/12/09 14:02:35;;;;;;;8.23;2.43;;;;;;;;;;10541648;27;20043;-69
2021/12/09 14:07:53;;;;;;;5.67;2.43;;;;;;;;;;10525013;27;20171;-71
2021/12/09 14:13:01;;;;;;;4.13;2.50;;;;;;;;;;10552698;28;20109;-69
2021/12/09 14:18:09;;;;;;;4.20;2.00;;;;;;;;;;10546307;28;20046;-69
2021/12/09 14:23:13;;;;;;;3.20;1.70;;;;;;;;;;10537691;28;20040;-69
2021/12/09 14:28:18;;;;;;;2.42;1.40;;;;;;;;;;10533775;27;20122;-71
2021/12/09 14:33:21;;;;;;;3.63;2.20;;;;;;;;;;10538058;28;20063;-70
2021/12/09 14:38:24;;;;;;;5.70;2.27;;;;;;;;;;10539525;27;20040;-70
2021/12/09 14:43:29;;;;;;;4.00;1.57;;;;;;;;;;10535224;28;20079;-68
2021/12/09 14:48:31;;;;;;;;;;;;;;;;;;10541984;28;20063;-69
2021/12/09 14:53:38;;;;;;;8.00;3.40;;;;;;;;;;10545017;27;20044;-68
2021/12/09 14:58:41;;;;;;;;;;;;;;;;;;10545111;28;20391;-70
2021/12/09 15:03:55;;;;;;;4.23;2.10;;;;;;;;;;10531728;27;19996;-70
2021/12/09 15:09:12;;;;;;;4.30;1.77;;;;;;;;;;10531074;28;20047;-69
2021/12/09 15:14:21;;;;;;;4.57;2.13;;;;;;;;;;10523005;28;20570;-69
2021/12/09 15:25:05;;;;;;;5.63;1.97;;;;;;;;;;10384250;28;20056;-77
2021/12/09 15:30:57;;;;;;;6.93;2.88;;;;;;;;;;10422581;28;20037;-77
2021/12/09 15:36:24;;;;;;;6.87;1.87;;;;;;;;;;10357495;28;20090;-76
2021/12/09 16:01:06;;;;;;;3.73;1.53;;;;;;;;;;10497753;22;20127;-74
2021/12/09 16:06:29;;;;;;;4.47;1.93;;;;;;;;;;10543449;28;20042;-74
2021/12/09 16:11:59;;;;;;;5.27;2.70;;;;;;;;;;10529846;28;20059;-70
2021/12/09 16:17:27;;;;;;;3.97;2.20;;;;;;;;;;10526665;28;20102;-69
2021/12/09 16:22:51;;;;;;;2.67;1.67;;;;;;;;;;10510857;28;20414;-73
2021/12/09 16:28:14;;;;;;;5.90;2.72;;;;;;;;;;10508992;28;20087;-70
2021/12/09 16:33:41;;;;;;;9.50;3.43;;;;;;;;;;10510518;28;20097;-70
2021/12/09 16:39:05;;;;;;;7.00;3.30;;;;;;;;;;10521479;28;20075;-73
2021/12/09 16:44:28;;;;;;;2.90;1.43;;;;;;;;;;10529271;28;20045;-71
2021/12/09 16:49:53;;;;;;;5.23;2.13;;;;;;;;;;10505524;28;20075;-70
2021/12/09 16:55:19;;;;;;;6.33;2.90;;;;;;;;;;10529436;28;20491;-69
2021/12/09 17:00:43;;;;;;;5.10;2.47;;;;;;;;;;10521946;28;20048;-70
2021/12/09 17:06:08;;;;;;;3.70;1.80;;;;;;;;;;10525716;28;20040;-70
2021/12/09 17:11:33;;;;;;;10.17;3.10;;;;;;;;;;10512033;28;20051;-71
2021/12/09 17:16:56;;;;;;;5.70;1.80;;;;;;;;;;10498611;28;20105;-70
2021/12/09 17:22:21;;;;;;;4.83;1.80;;;;;;;;;;10503530;28;20118;-71
2021/12/09 17:27:44;;;;;;;5.18;2.70;;;;;;;;;;10522764;28;20659;-72
2021/12/09 17:33:08;;;;;;;3.07;2.37;;;;;;;;;;10517334;28;20464;-69
2021/12/09 17:38:33;;;;;;;5.90;2.37;;;;;;;;;;10515821;28;20051;-70
2021/12/09 17:43:57;;;;;;;;;;;;;;;;;;10510924;28;20507;-68
2021/12/09 17:49:20;;;;;;;5.25;2.58;;;;;;;;;;10514269;28;19972;-71
2021/12/09 17:54:45;;;;;;;9.53;4.57;;;;;;;;;;10514104;28;20192;-68
2021/12/09 18:00:08;;;;;;;;;;;;;;;;;;10515124;28;20044;-71
2021/12/09 18:05:32;;;;;;;7.47;3.30;;;;;;;;;;10520475;28;20339;-72
2021/12/09 18:10:56;;;;;;;1.10;0.98;;;;;;;;;;10525889;28;20071;-71
2021/12/09 18:16:20;;;;;;;5.22;2.75;;;;;;;;;;10524297;28;20448;-71
2021/12/09 18:21:43;;;;;;;4.63;2.10;;;;;;;;;;10517967;28;20484;-70
2021/12/09 18:27:07;;;;;;;4.50;1.63;;;;;;;;;;10530066;28;20122;-71
2021/12/09 18:32:30;;;;;;;3.03;1.27;;;;;;;;;;10526464;28;20356;-71
2021/12/09 18:37:55;;;;;;;7.10;3.73;;;;;;;;;;10522817;28;20517;-70
2021/12/09 18:43:20;;;;;;;5.33;2.40;;;;;;;;;;10508396;28;20558;-71
2021/12/09 18:48:44;;;;;;;6.43;2.43;;;;;;;;;;10507046;28;20044;-71
2021/12/09 18:54:08;;;;;;;2.40;1.40;;;;;;;;;;10515290;28;20569;-72
2021/12/09 18:59:33;;;;;;;4.80;2.27;;;;;;;;;;10508128;28;20096;-71
2021/12/09 19:04:56;;;;;;;;;;;;;;;;;;10521603;28;20036;-70
2021/12/09 19:10:20;;;;;;;5.00;2.33;;;;;;;;;;10517304;28;20298;-72
2021/12/09 19:15:47;;;;;;;3.35;1.58;;;;;;;;;;10509275;28;20394;-71
2021/12/09 19:21:13;;;;;;;7.60;3.70;;;;;;;;;;10512194;28;20145;-71
2021/12/09 19:26:36;;;;;;;9.83;3.40;;;;;;;;;;10517556;28;20052;-70
2021/12/09 19:32:01;;;;;;;9.73;2.90;;;;;;;;;;10515121;28;20055;-71
2021/12/09 19:37:24;;;;;;;;;;;;;;;;;;10521620;28;20051;-71
2021/12/09 19:42:47;;;;;;;8.63;3.23;;;;;;;;;;10518403;28;20249;-70
2021/12/09 19:48:11;;;;;;;7.67;3.77;;;;;;;;;;10532282;28;20040;-72
2021/12/09 19:53:34;;;;;;;;;;;;;;;;;;10527284;28;20120;-73
2021/12/09 19:58:58;;;;;;;6.50;2.63;;;;;;;;;;10528821;28;20341;-71
2021/12/09 20:04:22;;;;;;;4.70;1.67;;;;;;;;;;10545647;28;20495;-71
2021/12/09 20:09:50;;;;;;;2.87;1.73;;;;;;;;;;10547208;28;20133;-71
2021/12/09 20:15:14;;;;;;;2.13;1.33;;;;;;;;;;10537672;28;20514;-70
2021/12/09 20:20:38;;;;;;;6.70;1.93;;;;;;;;;;10550935;28;20043;-72
2021/12/09 20:26:10;;;;;;;4.37;1.93;;;;;;;;;;10544132;28;20044;-69
2021/12/09 20:31:38;;;;;;;3.43;1.63;;;;;;;;;;10529285;28;20053;-69
2021/12/09 20:37:04;;;;;;;6.68;2.25;;;;;;;;;;10534010;28;20032;-70
2021/12/09 20:42:27;;;;;;;5.00;2.00;;;;;;;;;;10526689;28;20044;-69
2021/12/09 20:47:52;;;;;;;5.73;2.67;;;;;;;;;;10531557;28;20051;-72
2021/12/09 20:53:19;;;;;;;11.93;2.40;;;;;;;;;;10531705;28;20182;-71
2021/12/09 20:58:42;;;;;;;3.90;1.50;;;;;;;;;;10533291;28;20433;-71
2021/12/09 21:04:05;;;;;;;9.07;2.63;;;;;;;;;;10540342;28;20032;-69
2021/12/09 21:09:29;;;;;;;4.87;1.77;;;;;;;;;;10532262;28;20119;-70
2021/12/09 21:14:53;;;;;;;2.97;1.90;;;;;;;;;;10519811;28;20576;-69
2021/12/09 21:20:16;;;;;;;7.80;2.97;;;;;;;;;;10527430;28;20219;-70
2021/12/09 21:25:41;;;;;;;8.53;2.13;;;;;;;;;;10537716;28;20032;-70
2021/12/09 21:31:05;;;;;;;4.60;2.03;;;;;;;;;;10517775;28;20089;-70
2021/12/09 21:36:32;;;;;;;4.67;1.53;;;;;;;;;;10515760;28;20329;-71
2021/12/09 21:41:57;;;;;;;9.57;1.63;;;;;;;;;;10517280;28;20097;-71
2021/12/09 21:47:20;;;;;;;;;;;;;;;;;;10528539;28;20280;-71
2021/12/09 21:52:44;;;;;;;3.37;1.80;;;;;;;;;;10513770;28;19920;-70
2021/12/09 21:58:09;;;;;;;2.37;1.00;;;;;;;;;;10521766;28;20132;-70
2021/12/09 22:03:32;;;;;;;5.23;1.53;;;;;;;;;;10523025;28;20064;-71
2021/12/09 22:08:55;;;;;;;6.23;2.40;;;;;;;;;;10536603;22;20066;-71
2021/12/09 22:14:20;;;;;;;4.23;1.20;;;;;;;;;;10540870;28;20050;-72
2021/12/09 22:19:43;;;;;;;6.87;1.27;;;;;;;;;;10521164;28;20127;-71
2021/12/09 22:25:07;;;;;;;5.27;1.37;;;;;;;;;;10498303;28;20143;-71
2021/12/09 22:30:31;;;;;;;5.37;2.17;;;;;;;;;;10506605;28;20177;-70
2021/12/09 22:35:54;;;;;;;3.07;0.90;;;;;;;;;;10501827;28;20125;-70
2021/12/09 22:41:18;;;;;;;3.13;1.80;;;;;;;;;;10497731;28;20108;-71
2021/12/09 22:46:43;;;;;;;1.50;0.60;;;;;;;;;;10508191;28;20083;-71
2021/12/09 22:52:08;;;;;;;2.47;1.00;;;;;;;;;;10513835;28;20056;-70
2021/12/09 22:57:31;;;;;;;2.75;1.48;;;;;;;;;;10498652;28;20049;-71
2021/12/09 23:02:55;;;;;;;6.27;1.90;;;;;;;;;;10503454;28;20266;-72
2021/12/09 23:08:20;;;;;;;3.97;1.00;;;;;;;;;;10492562;28;20043;-70
2021/12/09 23:13:43;;;;;;;6.90;2.33;;;;;;;;;;10494665;28;20127;-71
2021/12/09 23:19:08;;;;;;;2.57;0.80;;;;;;;;;;10489287;28;20476;-70
2021/12/09 23:24:31;;;;;;;;;;;;;;;;;;10490366;28;20060;-70
2021/12/09 23:29:54;;;;;;;0.30;0.30;;;;;;;;;;10483899;28;19930;-71
2021/12/09 23:35:19;;;;;;;1.70;1.17;;;;;;;;;;10499335;28;20060;-72
2021/12/09 23:40:42;;;;;;;;;;;;;;;;;;10509239;28;20452;-69
2021/12/09 23:46:05;;;;;;;0.90;0.67;;;;;;;;;;10496941;28;20268;-70
2021/12/09 23:51:31;;;;;;;2.17;0.93;;;;;;;;;;10491373;28;20048;-70
2021/12/09 23:56:55;;;;;;;1.60;0.30;;;;;;;;;;10494534;28;20051;-70
